Time;durP1;ratioP1;P1;durP2;ratioP2;P2;SDS_P1;SDS_P2;PMS_P1;PMS_P2;Temp;Humidity;BMP_temperature;BMP_pressure;BME280_temperature;BME280_humidity;BME280_pressure;Samples;Min_cycle;Max_cycle;Signal;HPM_P1;HPM_P2
2024/02/24 00:01:28;;;;;;;;;;;;;;;4.90;100.00;99317.44;5044436;28;19973;-76
2024/02/24 00:03:54;;;;;;;;;;;;;;;4.87;100.00;99314.13;5063649;28;20215;-77
2024/02/24 00:06:19;;;;;;;;;;;;;;;4.85;100.00;99326.31;5073240;28;19916;-76
2024/02/24 00:08:44;;;;;;;;;;;;;;;4.84;100.00;99324.63;5073215;28;20297;-77
2024/02/24 00:11:09;;;;;;;;;;;;;;;4.84;100.00;99327.22;5074179;28;19991;-77
2024/02/24 00:13:34;;;;;;;;;;;;;;;4.80;100.00;99324.78;5074074;28;20288;-76
2024/02/24 00:16:03;;;;;;;;;;;;;;;4.77;100.00;99327.47;5069943;28;19921;-77
2024/02/24 00:18:28;;;;;;;;;;;;;;;4.76;100.00;99323.19;5072081;28;19938;-77
2024/02/24 00:20:53;;;;;;;;;;;;;;;4.74;100.00;99325.00;5073778;28;19924;-76
2024/02/24 00:23:18;;;;;;;;;;;;;;;4.73;100.00;99328.53;5074166;28;19991;-77
2024/02/24 00:25:43;;;;;;;;;;;;;;;4.72;100.00;99328.56;5074507;28;20180;-77
2024/02/24 00:28:09;;;;;;;;;;;;;;;4.73;100.00;99336.28;5074381;28;19920;-77
2024/02/24 00:30:35;;;;;;;;;;;;;;;4.73;100.00;99335.44;5074515;28;20025;-76
2024/02/24 00:33:00;;;;;;;;;;;;;;;4.73;100.00;99335.44;5074517;28;20009;-77
2024/02/24 00:35:28;;;;;;;;;;;;;;;4.72;100.00;99333.75;5074583;28;20238;-77
2024/02/24 00:37:53;;;;;;;;;;;;;;;4.72;100.00;99333.75;5074397;28;19923;-76
2024/02/24 00:40:18;;;;;;;;;;;;;;;4.71;100.00;99332.94;5086059;28;19916;-77
2024/02/24 00:42:44;;;;;;;;;;;;;;;4.72;100.00;99338.94;5095291;28;19931;-76
2024/02/24 00:45:09;;;;;;;;;;;;;;;4.72;100.00;99338.94;5098549;28;20365;-77
2024/02/24 00:47:34;;;;;;;;;;;;;;;4.73;100.00;99340.63;5091774;28;20185;-77
2024/02/24 00:50:00;;;;;;;;;;;;;;;4.73;100.00;99331.09;5078339;28;19924;-77
2024/02/24 00:52:25;;;;;;;;;;;;;;;4.73;100.00;99338.03;5060213;28;19943;-77
2024/02/24 00:54:51;;;;;;;;;;;;;;;4.71;100.00;99332.94;5078692;28;19916;-76
2024/02/24 00:57:16;;;;;;;;;;;;;;;4.70;100.00;99332.97;5060441;28;19916;-77
2024/02/24 00:59:41;;;;;;;;;;;;;;;4.69;100.00;99333.88;5078202;28;19916;-77
2024/02/24 01:02:08;;;;;;;;;;;;;;;4.65;100.00;99335.75;5078233;28;19971;-76
2024/02/24 01:04:33;;;;;;;;;;;;;;;4.63;100.00;99339.31;5078320;28;19916;-77
2024/02/24 01:07:00;;;;;;;;;;;;;;;4.60;100.00;99343.72;5078083;28;19922;-77
2024/02/24 01:09:26;;;;;;;;;;;;;;;4.61;100.00;99336.78;5063740;28;19954;-77
2024/02/24 01:11:51;;;;;;;;;;;;;;;4.56;100.00;99329.19;5098464;28;20085;-77
2024/02/24 01:14:16;;;;;;;;;;;;;;;4.55;100.00;99334.44;5098472;28;19985;-76
2024/02/24 01:16:44;;;;;;;;;;;;;;;4.56;100.00;99336.13;5098658;28;19947;-77
2024/02/24 01:19:09;;;;;;;;;;;;;;;4.52;100.00;99334.56;5078056;28;19964;-77
2024/02/24 01:21:39;;;;;;;;;;;;;;;4.53;100.00;99337.09;5078170;28;19916;-77
2024/02/24 01:24:04;;;;;;;;;;;;;;;4.55;100.00;99340.47;5059695;28;19916;-76
2024/02/24 01:26:29;;;;;;;;;;;;;;;4.59;100.00;99336.00;5060101;28;20202;-77
2024/02/24 01:28:55;;;;;;;;;;;;;;;4.56;100.00;99338.72;5077528;28;19958;-76
2024/02/24 01:31:20;;;;;;;;;;;;;;;4.53;100.00;99344.00;5059476;28;19921;-77
2024/02/24 01:33:45;;;;;;;;;;;;;;;4.51;100.00;99346.69;5059497;28;19943;-77
2024/02/24 01:36:10;;;;;;;;;;;;;;;4.52;100.00;99355.31;5077409;28;19920;-77
2024/02/24 01:38:36;;;;;;;;;;;;;;;4.53;100.00;99357.84;5077802;28;19908;-76
2024/02/24 01:41:01;;;;;;;;;;;;;;;4.56;100.00;99357.69;5094124;28;19916;-76
2024/02/24 01:43:27;;;;;;;;;;;;;;;4.56;100.00;99352.50;5097787;28;19915;-77
2024/02/24 01:45:53;;;;;;;;;;;;;;;4.57;100.00;99354.22;5079324;28;20111;-76
2024/02/24 01:48:19;;;;;;;;;;;;;;;4.60;100.00;99358.41;5085216;28;20042;-77
2024/02/24 01:50:45;;;;;;;;;;;;;;;4.57;100.00;99361.16;5059763;28;19920;-77
2024/02/24 01:53:10;;;;;;;;;;;;;;;4.57;100.00;99356.81;5077360;28;19927;-76
2024/02/24 01:55:36;;;;;;;;;;;;;;;4.57;100.00;99358.56;5076906;28;19916;-78
2024/02/24 01:58:02;;;;;;;;;;;;;;;4.60;100.00;99361.88;5077206;28;19917;-78
2024/02/24 02:00:28;;;;;;;;;;;;;;;4.60;100.00;99368.78;5077456;28;20239;-77
2024/02/24 02:02:53;;;;;;;;;;;;;;;4.57;100.00;99356.81;5077041;28;19917;-77
2024/02/24 02:05:18;;;;;;;;;;;;;;;4.57;100.00;99366.34;5077237;28;20266;-77
2024/02/24 02:07:44;;;;;;;;;;;;;;;4.57;100.00;99355.97;5077103;28;20131;-77
2024/02/24 02:10:09;;;;;;;;;;;;;;;4.57;100.00;99368.94;5086581;28;20447;-77
2024/02/24 02:12:35;;;;;;;;;;;;;;;4.55;100.00;99361.22;5097043;28;19942;-77
2024/02/24 02:15:02;;;;;;;;;;;;;;;4.56;100.00;99364.63;5097071;28;19927;-77
2024/02/24 02:17:27;;;;;;;;;;;;;;;4.56;100.00;99362.06;5091168;28;19927;-76
2024/02/24 02:19:53;;;;;;;;;;;;;;;4.55;100.00;99365.56;5076493;28;19920;-77
2024/02/24 02:22:18;;;;;;;;;;;;;;;4.54;100.00;99367.28;5076467;28;19951;-77
2024/02/24 02:24:44;;;;;;;;;;;;;;;4.57;100.00;99368.94;5064289;28;19927;-77
2024/02/24 02:27:09;;;;;;;;;;;;;;;4.60;100.00;99361.00;5076520;28;19916;-77
2024/02/24 02:29:34;;;;;;;;;;;;;;;4.60;100.00;99373.97;5076617;28;19924;-77
2024/02/24 02:32:00;;;;;;;;;;;;;;;4.55;100.00;99371.59;5076172;28;19920;-77
2024/02/24 02:34:25;;;;;;;;;;;;;;;4.53;100.00;99362.16;5076541;28;20001;-77
2024/02/24 02:36:50;;;;;;;;;;;;;;;4.52;100.00;99363.91;5076322;28;20239;-77
2024/02/24 02:39:15;;;;;;;;;;;;;;;4.54;100.00;99371.63;5072297;28;19917;-77
2024/02/24 02:41:41;;;;;;;;;;;;;;;4.52;100.00;99369.09;5096355;28;19987;-77
2024/02/24 02:44:06;;;;;;;;;;;;;;;4.49;100.00;99368.38;5096691;28;20115;-77
2024/02/24 02:46:31;;;;;;;;;;;;;;;4.48;100.00;99375.31;5097014;28;19923;-77
2024/02/24 02:48:56;;;;;;;;;;;;;;;4.48;100.00;99377.06;5077926;28;19916;-77
2024/02/24 02:51:22;;;;;;;;;;;;;;;4.46;100.00;99369.34;5076261;28;20109;-77
2024/02/24 02:53:47;;;;;;;;;;;;;;;4.41;100.00;99368.69;5076215;28;19927;-77
2024/02/24 02:56:12;;;;;;;;;;;;;;;4.41;100.00;99371.28;5075865;28;19920;-77
2024/02/24 02:58:38;;;;;;;;;;;;;;;4.38;100.00;99369.66;5075929;28;19923;-77
2024/02/24 03:01:03;;;;;;;;;;;;;;;4.40;100.00;99370.44;5075687;28;19927;-77
2024/02/24 03:03:28;;;;;;;;;;;;;;;4.41;100.00;99373.88;5060349;28;19916;-77
2024/02/24 03:05:55;;;;;;;;;;;;;;;4.40;100.00;99370.44;5055297;28;19916;-77
2024/02/24 03:08:21;;;;;;;;;;;;;;;4.40;100.00;99372.16;5055345;28;19920;-77
2024/02/24 03:10:46;;;;;;;;;;;;;;;4.32;100.00;99372.47;5067177;28;20049;-77
2024/02/24 03:13:12;;;;;;;;;;;;;;;4.31;100.00;99375.09;5077337;28;20158;-77
2024/02/24 03:15:37;;;;;;;;;;;;;;;4.29;100.00;99376.91;5095677;28;19970;-77
2024/02/24 03:18:02;;;;;;;;;;;;;;;4.26;100.00;99371.84;5085003;28;20128;-77
2024/02/24 03:20:27;;;;;;;;;;;;;;;4.25;100.00;99377.94;5075642;28;19917;-77
2024/02/24 03:22:52;;;;;;;;;;;;;;;4.26;100.00;99379.63;5075409;28;20185;-77
2024/02/24 03:25:18;;;;;;;;;;;;;;;4.24;100.00;99377.13;5058095;28;20242;-77
2024/02/24 03:27:43;;;;;;;;;;;;;;;4.25;100.00;99371.00;5075737;28;20196;-76
2024/02/24 03:30:09;;;;;;;;;;;;;;;4.26;100.00;99384.81;5075207;28;19958;-77
2024/02/24 03:32:34;;;;;;;;;;;;;;;4.27;100.00;99376.13;5072388;28;19935;-76
2024/02/24 03:34:59;;;;;;;;;;;;;;;4.23;100.00;99385.78;5057137;28;19939;-76
2024/02/24 03:37:24;;;;;;;;;;;;;;;4.25;100.00;99383.13;5075264;28;20002;-77
2024/02/24 03:39:50;;;;;;;;;;;;;;;4.22;100.00;99376.31;5082250;28;19916;-77
2024/02/24 03:42:15;;;;;;;;;;;;;;;4.23;100.00;99385.78;5096002;28;19970;-77
2024/02/24 03:44:40;;;;;;;;;;;;;;;4.22;100.00;99391.84;5095471;28;19916;-77
2024/02/24 03:47:06;;;;;;;;;;;;;;;4.26;100.00;99379.63;5092550;28;19923;-77
2024/02/24 03:49:31;;;;;;;;;;;;;;;4.23;100.00;99376.25;5075045;28;19983;-77
2024/02/24 03:51:56;;;;;;;;;;;;;;;4.26;100.00;99377.03;5074858;28;20211;-77
2024/02/24 03:54:22;;;;;;;;;;;;;;;4.27;100.00;99378.72;5057160;28;19974;-76
2024/02/24 03:56:49;;;;;;;;;;;;;;;4.27;100.00;99379.56;5075206;28;19916;-76
2024/02/24 03:59:15;;;;;;;;;;;;;;;4.25;100.00;99375.34;5075942;28;19916;-76
2024/02/24 04:01:40;;;;;;;;;;;;;;;4.25;100.00;99386.56;5075030;28;19979;-77
2024/02/24 04:04:05;;;;;;;;;;;;;;;4.23;100.00;99389.22;5074935;28;19924;-76
2024/02/24 04:06:31;;;;;;;;;;;;;;;4.21;100.00;99387.59;5074844;28;20119;-76
2024/02/24 04:08:56;;;;;;;;;;;;;;;4.19;100.00;99389.41;5075029;28;19917;-76
2024/02/24 04:11:21;;;;;;;;;;;;;;;4.15;100.00;99388.66;5094786;28;19923;-77
2024/02/24 04:13:46;;;;;;;;;;;;;;;4.11;100.00;99384.50;5095443;28;20166;-76
2024/02/24 04:16:11;;;;;;;;;;;;;;;4.13;100.00;99392.19;5094652;28;19951;-77
2024/02/24 04:18:37;;;;;;;;;;;;;;;4.11;100.00;99388.81;5083801;28;19940;-76
2024/02/24 04:21:02;;;;;;;;;;;;;;;4.10;100.00;99398.34;5063626;28;19927;-76
2024/02/24 04:23:27;;;;;;;;;;;;;;;4.10;100.00;99400.09;5081518;28;19987;-77
2024/02/24 04:25:52;;;;;;;;;;;;;;;4.09;100.00;99396.66;5081645;28;20218;-77
2024/02/24 04:28:18;;;;;;;;;;;;;;;4.08;100.00;99404.50;5063597;28;20199;-77
2024/02/24 04:30:43;;;;;;;;;;;;;;;4.07;100.00;99410.56;5082044;28;20135;-77
2024/02/24 04:33:08;;;;;;;;;;;;;;;4.03;100.00;99413.25;5081260;28;19920;-76
2024/02/24 04:35:34;;;;;;;;;;;;;;;4.03;100.00;99421.03;5081468;28;20196;-77
2024/02/24 04:37:59;;;;;;;;;;;;;;;4.01;100.00;99427.19;5081504;28;20027;-77
2024/02/24 04:40:24;;;;;;;;;;;;;;;4.01;100.00;99427.19;5074951;28;19923;-77
2024/02/24 04:42:49;;;;;;;;;;;;;;;4.03;100.00;99425.38;5101459;28;19999;-77
2024/02/24 04:45:15;;;;;;;;;;;;;;;4.04;100.00;99432.25;5101887;28;19916;-76
2024/02/24 04:47:40;;;;;;;;;;;;;;;4.01;100.00;99425.44;5094326;28;19958;-76
2024/02/24 04:50:05;;;;;;;;;;;;;;;4.03;100.00;99428.81;5078869;28;20217;-77
2024/02/24 04:52:31;;;;;;;;;;;;;;;4.03;100.00;99436.59;5064944;28;19944;-77
2024/02/24 04:54:56;;;;;;;;;;;;;;;3.98;100.00;99428.16;5062217;28;19917;-77
2024/02/24 04:57:22;;;;;;;;;;;;;;;3.93;100.00;99429.19;5081312;28;19983;-77
2024/02/24 04:59:47;;;;;;;;;;;;;;;3.90;100.00;99432.75;5081195;28;20134;-77
2024/02/24 05:02:12;;;;;;;;;;;;;;;3.92;100.00;99441.31;5062987;28;19916;-77
2024/02/24 05:04:37;;;;;;;;;;;;;;;3.96;100.00;99426.50;5080995;28;20267;-76
2024/02/24 05:07:03;;;;;;;;;;;;;;;4.00;100.00;99434.13;5074977;28;19917;-76
2024/02/24 05:09:28;;;;;;;;;;;;;;;4.04;100.00;99434.84;5096965;28;19942;-77
2024/02/24 05:11:54;;;;;;;;;;;;;;;4.08;100.00;99426.06;5088250;28;19920;-76
2024/02/24 05:14:19;;;;;;;;;;;;;;;4.07;100.00;99431.31;5063191;28;19916;-77
2024/02/24 05:16:44;;;;;;;;;;;;;;;4.05;100.00;99421.00;5081170;28;20199;-77
2024/02/24 05:19:10;;;;;;;;;;;;;;;4.03;100.00;99426.22;5067178;28;19923;-76
2024/02/24 05:21:35;;;;;;;;;;;;;;;4.03;100.00;99431.41;5081070;28;19950;-77
2024/02/24 05:24:00;;;;;;;;;;;;;;;4.00;100.00;99436.72;5081191;28;20097;-76
2024/02/24 05:26:26;;;;;;;;;;;;;;;4.01;100.00;99440.97;5080826;28;19917;-76
2024/02/24 05:28:52;;;;;;;;;;;;;;;3.99;100.00;99442.78;5080111;28;20096;-77
2024/02/24 05:31:17;;;;;;;;;;;;;;;3.98;100.00;99450.59;5076908;28;19951;-76
2024/02/24 05:33:42;;;;;;;;;;;;;;;3.96;100.00;99450.66;5077879;28;20144;-76
2024/02/24 05:36:07;;;;;;;;;;;;;;;3.97;100.00;99462.72;5063575;28;19979;-76
2024/02/24 05:38:36;;;;;;;;;;;;;;;3.95;100.00;99466.28;5057875;28;20112;-76
2024/02/24 05:41:02;;;;;;;;;;;;;;;3.93;100.00;99468.03;5090808;28;19930;-76
2024/02/24 05:43:27;;;;;;;;;;;;;;;3.93;100.00;99470.63;5097824;28;19995;-77
2024/02/24 05:45:53;;;;;;;;;;;;;;;3.96;100.00;99475.72;5097693;28;19939;-76
2024/02/24 05:48:18;;;;;;;;;;;;;;;3.95;100.00;99477.47;5072194;28;19944;-77
2024/02/24 05:50:43;;;;;;;;;;;;;;;3.95;100.00;99480.06;5057746;28;20192;-77
2024/02/24 05:53:09;;;;;;;;;;;;;;;3.98;100.00;99482.56;5057244;28;19928;-76
2024/02/24 05:55:34;;;;;;;;;;;;;;;3.97;100.00;99480.84;5057605;28;20332;-76
2024/02/24 05:57:59;;;;;;;;;;;;;;;3.98;100.00;99486.88;5057066;28;19916;-76
2024/02/24 06:00:24;;;;;;;;;;;;;;;4.00;100.00;99485.94;5039164;28;19924;-76
2024/02/24 06:02:50;;;;;;;;;;;;;;;4.02;100.00;99494.50;5057096;28;19917;-76
2024/02/24 06:05:15;;;;;;;;;;;;;;;4.04;100.00;99494.44;5057227;28;20107;-76
2024/02/24 06:07:40;;;;;;;;;;;;;;;4.04;100.00;99486.66;5057232;28;20228;-76
2024/02/24 06:10:06;;;;;;;;;;;;;;;4.07;100.00;99483.94;5075648;28;19916;-76
2024/02/24 06:12:31;;;;;;;;;;;;;;;4.10;100.00;99485.59;5079323;28;19920;-76
2024/02/24 06:14:57;;;;;;;;;;;;;;;4.11;100.00;99493.31;5097447;28;20294;-76
2024/02/24 06:17:22;;;;;;;;;;;;;;;4.13;100.00;99501.03;5092122;28;20350;-76
2024/02/24 06:19:47;;;;;;;;;;;;;;;4.14;100.00;99500.13;5076951;28;20115;-76
2024/02/24 06:22:12;;;;;;;;;;;;;;;4.14;100.00;99505.31;5076794;28;20111;-76
2024/02/24 06:24:38;;;;;;;;;;;;;;;4.14;100.00;99506.16;5076660;28;20215;-77
2024/02/24 06:27:03;;;;;;;;;;;;;;;4.13;100.00;99512.25;5076825;28;19943;-76
2024/02/24 06:29:28;;;;;;;;;;;;;;;4.11;100.00;99506.28;5077077;28;19966;-76
2024/02/24 06:31:53;;;;;;;;;;;;;;;4.12;100.00;99510.56;5076188;28;20149;-77
2024/02/24 06:34:19;;;;;;;;;;;;;;;4.13;100.00;99508.78;5076918;28;20196;-77
2024/02/24 06:36:44;;;;;;;;;;;;;;;4.15;100.00;99519.97;5076797;28;20148;-76
2024/02/24 06:39:09;;;;;;;;;;;;;;;4.16;100.00;99525.09;5077801;28;19920;-76
2024/02/24 06:41:34;;;;;;;;;;;;;;;4.18;100.00;99519.84;5096251;28;20307;-76
2024/02/24 06:43:59;;;;;;;;;;;;;;;4.18;100.00;99527.63;5096582;28;19916;-77
2024/02/24 06:46:25;;;;;;;;;;;;;;;4.15;100.00;99520.81;5097044;28;19916;-77
2024/02/24 06:48:50;;;;;;;;;;;;;;;4.15;100.00;99519.97;5079333;28;20250;-76
2024/02/24 06:51:15;;;;;;;;;;;;;;;4.16;100.00;99525.09;5058666;28;19954;-76
2024/02/24 06:53:42;;;;;;;;;;;;;;;4.17;100.00;99534.56;5058067;28;20097;-76
2024/02/24 06:56:07;;;;;;;;;;;;;;;4.16;100.00;99542.38;5059310;28;19917;-76
2024/02/24 06:58:33;;;;;;;;;;;;;;;4.15;100.00;99549.31;5056367;28;20137;-77
2024/02/24 07:00:59;;;;;;;;;;;;;;;4.16;100.00;99552.75;5038279;28;19920;-76
2024/02/24 07:03:24;;;;;;;;;;;;;;;4.18;100.00;99550.94;5037988;28;20183;-76
2024/02/24 07:05:49;;;;;;;;;;;;;;;4.18;100.00;99550.94;5055827;28;19916;-77
2024/02/24 07:08:15;;;;;;;;;;;;;;;4.19;100.00;99555.25;5056349;28;19995;-76
2024/02/24 07:10:40;;;;;;;;;;;;;;;4.19;100.00;99557.84;5083926;28;19950;-77
2024/02/24 07:13:05;;;;;;;;;;;;;;;4.19;100.00;99560.44;5096100;28;19969;-77
2024/02/24 07:15:30;;;;;;;;;;;;;;;4.22;100.00;99560.28;5096306;28;19916;-77
2024/02/24 07:17:55;;;;;;;;;;;;;;;4.25;100.00;99567.13;5086353;28;20167;-77
2024/02/24 07:20:21;;;;;;;;;;;;;;;4.26;100.00;99574.88;5076228;28;19927;-77
2024/02/24 07:22:48;;;;;;;;;;;;;;;4.30;100.00;99581.63;5075814;28;19961;-77
2024/02/24 07:25:13;;;;;;;;;;;;;;;4.33;100.00;99576.34;5075510;28;19909;-77
2024/02/24 07:27:39;;;;;;;;;;;;;;;4.36;100.00;99568.44;5076029;28;19916;-77
2024/02/24 07:30:05;;;;;;;;;;;;;;;4.39;100.00;99583.88;5075497;28;19969;-77
2024/02/24 07:32:30;;;;;;;;;;;;;;;4.44;100.00;99586.34;5075593;28;19920;-77
2024/02/24 07:34:55;;;;;;;;;;;;;;;4.42;100.00;99586.38;5075416;28;19916;-76
2024/02/24 07:37:21;;;;;;;;;;;;;;;4.44;100.00;99581.16;5075806;28;19923;-77
2024/02/24 07:39:46;;;;;;;;;;;;;;;4.45;100.00;99588.00;5063897;28;19923;-76
2024/02/24 07:42:11;;;;;;;;;;;;;;;4.48;100.00;99597.44;5076951;28;19930;-77
2024/02/24 07:44:37;;;;;;;;;;;;;;;4.49;100.00;99596.53;5095474;28;19916;-76
2024/02/24 07:47:03;;;;;;;;;;;;;;;4.50;100.00;99601.66;5093286;28;20203;-77
2024/02/24 07:49:28;;;;;;;;;;;;;;;4.51;100.00;99605.97;5075208;28;20187;-77
2024/02/24 07:51:54;;;;;;;;;;;;;;;4.53;100.00;99606.75;5074839;28;20008;-76
2024/02/24 07:54:19;;;;;;;;;;;;;;;4.52;100.00;99607.63;5074917;28;19920;-76
2024/02/24 07:56:44;;;;;;;;;;;;;;;4.58;100.00;99609.16;5075232;28;20436;-77
2024/02/24 07:59:09;;;;;;;;;;;;;;;4.62;100.00;99623.72;5074883;28;19916;-76
2024/02/24 08:01:34;;;;;;;;;;;;;;;4.66;100.00;99614.94;5074891;28;20167;-76
2024/02/24 08:04:00;;;;;;;;;;;;;;;4.65;100.00;99622.75;5074941;28;20326;-76
2024/02/24 08:06:25;;;;;;;;;;;;;;;4.68;100.00;99631.28;5075391;28;19917;-76
2024/02/24 08:08:52;;;;;;;;;;;;;;;4.71;100.00;99630.31;5075145;28;19927;-76
2024/02/24 08:11:18;;;;;;;;;;;;;;;4.75;100.00;99643.13;5074875;28;20222;-76
2024/02/24 08:13:43;;;;;;;;;;;;;;;4.75;100.00;99630.16;5075322;28;19943;-76
2024/02/24 08:16:08;;;;;;;;;;;;;;;4.79;100.00;99636.09;5074739;28;19916;-76
2024/02/24 08:18:35;;;;;;;;;;;;;;;4.78;100.00;99632.66;5074623;28;19919;-76
2024/02/24 08:21:06;;;;;;;;;;;;;;;4.76;100.00;99643.97;5074940;28;19913;-76
2024/02/24 08:23:33;;;;;;;;;;;;;;;4.77;100.00;99632.72;5074852;28;20157;-76
2024/02/24 08:25:58;;;;;;;;;;;;;;;4.78;100.00;99636.97;5075058;28;19955;-76
2024/02/24 08:28:23;;;;;;;;;;;;;;;4.75;100.00;99643.13;5075019;28;19943;-76
2024/02/24 08:30:48;;;;;;;;;;;;;;;4.78;100.00;99644.75;5074977;28;19917;-76
2024/02/24 08:33:14;;;;;;;;;;;;;;;4.75;100.00;99650.91;5074820;28;19950;-76
2024/02/24 08:35:39;;;;;;;;;;;;;;;4.78;100.00;99658.59;5074922;28;19916;-76
2024/02/24 08:38:05;;;;;;;;;;;;;;;4.73;100.00;99650.13;5074984;28;19908;-78
2024/02/24 08:40:32;;;;;;;;;;;;;;;4.76;100.00;99654.34;5070215;28;19908;-76
2024/02/24 08:42:57;;;;;;;;;;;;;;;4.81;100.00;99657.63;5054517;28;19929;-76
2024/02/24 08:45:23;;;;;;;;;;;;;;;4.84;100.00;99652.34;5053342;28;19952;-76
2024/02/24 08:47:48;;;;;;;;;;;;;;;4.85;100.00;99656.59;5045995;28;19921;-76
2024/02/24 08:50:14;;;;;;;;;;;;;;;4.85;100.00;99655.78;5066242;28;19991;-76
2024/02/24 08:52:39;;;;;;;;;;;;;;;4.86;100.00;99670.41;5034491;28;19921;-76
2024/02/24 08:55:05;;;;;;;;;;;;;;;4.90;100.00;99659.06;5034310;28;19913;-76
2024/02/24 08:57:30;;;;;;;;;;;;;;;4.79;100.00;99664.63;5034457;28;19995;-76
2024/02/24 08:59:55;;;;;;;;;;;;;;;4.86;100.00;99666.09;5034492;28;19991;-76
2024/02/24 09:02:20;;;;;;;;;;;;;;;4.86;100.00;99670.41;5034913;28;19912;-76
2024/02/24 09:04:46;;;;;;;;;;;;;;;4.88;100.00;99666.03;5033783;28;20086;-76
2024/02/24 09:07:11;;;;;;;;;;;;;;;4.81;100.00;99666.25;5070109;28;19944;-76
2024/02/24 09:09:36;;;;;;;;;;;;;;;4.80;100.00;99672.34;5043453;28;20221;-76
2024/02/24 09:12:01;;;;;;;;;;;;;;;4.84;100.00;99675.69;5058239;28;19971;-76
2024/02/24 09:14:27;;;;;;;;;;;;;;;4.86;100.00;99675.59;5058739;28;20309;-76
2024/02/24 09:16:56;;;;;;;;;;;;;;;4.81;100.00;99679.22;5057638;28;19916;-78
2024/02/24 09:19:22;;;;;;;;;;;;;;;4.78;100.00;99686.25;5038213;28;20155;-76
2024/02/24 09:21:47;;;;;;;;;;;;;;;4.84;100.00;99678.28;5038484;28;20252;-78
2024/02/24 09:24:12;;;;;;;;;;;;;;;4.86;100.00;99689.44;5038228;28;20212;-76
2024/02/24 09:26:38;;;;;;;;;;;;;;;4.85;100.00;99685.16;5038430;28;19944;-76
2024/02/24 09:29:03;;;;;;;;;;;;;;;4.91;100.00;99699.63;5038671;28;19952;-78
2024/02/24 09:31:28;;;;;;;;;;;;;;;4.89;100.00;99699.69;5038487;28;20420;-78
2024/02/24 09:33:55;;;;;;;;;;;;;;;4.90;100.00;99692.78;5038534;28;20093;-78
2024/02/24 09:36:21;;;;;;;;;;;;;;;4.90;100.00;99698.81;5037159;28;19988;-78
2024/02/24 09:38:46;;;;;;;;;;;;;;;4.90;100.00;99698.81;5038067;28;20112;-78
2024/02/24 09:41:11;;;;;;;;;;;;;;;4.91;100.00;99703.09;5044602;28;19924;-78
2024/02/24 09:43:37;;;;;;;;;;;;;;;4.94;100.00;99704.72;5039553;28;19962;-78
2024/02/24 09:46:02;;;;;;;;;;;;;;;4.89;100.00;99712.66;5057541;28;19918;-78
2024/02/24 09:48:29;;;;;;;;;;;;;;;4.92;100.00;99703.94;5034682;28;19920;-78
2024/02/24 09:50:54;;;;;;;;;;;;;;;4.88;100.00;99713.59;5057501;28;19947;-78
2024/02/24 09:53:19;;;;;;;;;;;;;;;4.90;100.00;99723.91;5047554;28;19929;-78
2024/02/24 09:55:45;;;;;;;;;;;;;;;4.92;100.00;99722.09;5037648;28;19952;-77
2024/02/24 09:58:11;;;;;;;;;;;;;;;4.90;100.00;99729.94;5037661;28;19917;-77
2024/02/24 10:00:37;;;;;;;;;;;;;;;4.93;100.00;99727.25;5037458;28;19924;-77
2024/02/24 10:03:03;;;;;;;;;;;;;;;4.98;100.00;99732.25;5039715;28;19917;-77
2024/02/24 10:05:28;;;;;;;;;;;;;;;4.95;100.00;99719.41;5031749;28;19951;-77
2024/02/24 10:07:54;;;;;;;;;;;;;;;5.00;100.00;99736.50;5053668;28;20204;-77
2024/02/24 10:10:19;;;;;;;;;;;;;;;4.96;100.00;99734.91;5049961;28;19917;-77
2024/02/24 10:13:01;;;;;;;;;;;;;;;4.97;100.00;99746.16;5035119;28;19929;-77
2024/02/24 10:15:26;;;;;;;;;;;;;;;4.90;100.00;99748.09;5035465;28;20231;-77
2024/02/24 10:17:58;;;;;;;;;;;;;;;4.91;100.00;99748.94;5036371;28;20129;-77
2024/02/24 10:20:23;;;;;;;;;;;;;;;4.94;100.00;99748.84;5046986;28;19923;-76
2024/02/24 10:22:49;;;;;;;;;;;;;;;4.93;100.00;99755.78;5051745;28;19940;-77
2024/02/24 10:25:14;;;;;;;;;;;;;;;4.96;100.00;99750.47;5021243;28;19921;-76
2024/02/24 10:27:42;;;;;;;;;;;;;;;4.98;100.00;99758.19;5043829;28;19928;-76
2024/02/24 10:30:07;;;;;;;;;;;;;;;4.95;100.00;99755.75;5051153;28;19928;-76
2024/02/24 10:32:33;;;;;;;;;;;;;;;4.95;100.00;99769.56;5046872;28;19920;-77
2024/02/24 10:34:58;;;;;;;;;;;;;;;4.96;100.00;99768.63;5044914;28;19920;-77
2024/02/24 10:37:23;;;;;;;;;;;;;;;4.92;100.00;99771.41;5049957;28;19921;-76
2024/02/24 10:39:49;;;;;;;;;;;;;;;4.94;100.00;99769.59;5028489;28;20153;-76
2024/02/24 10:42:15;;;;;;;;;;;;;;;4.91;100.00;99765.38;5049727;28;19924;-77
2024/02/24 10:44:40;;;;;;;;;;;;;;;4.92;100.00;99774.00;5043733;28;19933;-76
2024/02/24 10:47:05;;;;;;;;;;;;;;;4.88;100.00;99769.81;5041695;28;19932;-76
2024/02/24 10:49:31;;;;;;;;;;;;;;;4.90;100.00;99775.81;5052094;28;20112;-76
2024/02/24 10:51:56;;;;;;;;;;;;;;;4.89;100.00;99787.91;5050535;28;19925;-76
2024/02/24 10:54:24;;;;;;;;;;;;;;;4.90;100.00;99781.00;5053121;28;20258;-77
2024/02/24 10:56:58;;;;;;;;;;;;;;;4.94;100.00;99791.19;5051065;28;19927;-76
2024/02/24 10:59:27;;;;;;;;;;;;;;;4.92;100.00;99785.22;5052522;28;19917;-76
2024/02/24 11:01:52;;;;;;;;;;;;;;;5.00;100.00;99791.00;5053272;28;19921;-76
2024/02/24 11:04:18;;;;;;;;;;;;;;;5.02;100.00;99796.16;5051311;28;19957;-76
2024/02/24 11:06:50;;;;;;;;;;;;;;;5.11;100.00;99806.22;5030520;28;20101;-77
2024/02/24 11:09:19;;;;;;;;;;;;;;;5.18;100.00;99802.50;5049959;28;20242;-77
2024/02/24 11:11:46;;;;;;;;;;;;;;;5.26;100.00;99807.41;5049219;28;19947;-77
2024/02/24 11:14:11;;;;;;;;;;;;;;;5.36;100.00;99800.97;5048781;28;20188;-77
2024/02/24 11:16:38;;;;;;;;;;;;;;;5.40;100.00;99801.72;5048017;28;19943;-76
2024/02/24 11:19:10;;;;;;;;;;;;;;;5.47;100.00;99807.53;5054181;28;19917;-76
2024/02/24 11:22:11;;;;;;;;;;;;;;;5.49;100.00;99803.97;5054638;28;19920;-77
2024/02/24 11:24:37;;;;;;;;;;;;;;;5.54;100.00;99803.81;4992930;28;19924;-76
2024/02/24 11:27:03;;;;;;;;;;;;;;;5.50;100.00;99808.28;5030176;28;19921;-77
2024/02/24 11:29:29;;;;;;;;;;;;;;;5.44;100.00;99813.72;5036028;28;20261;-77
2024/02/24 11:32:14;;;;;;;;;;;;;;;5.38;100.00;99813.91;5044294;28;19982;-77
2024/02/24 11:34:42;;;;;;;;;;;;;;;5.35;100.00;99819.22;5051422;28;19916;-77
2024/02/24 11:37:08;;;;;;;;;;;;;;;5.37;100.00;99822.63;5029263;28;19956;-77
2024/02/24 11:39:35;;;;;;;;;;;;;;;5.33;100.00;99813.22;5046849;28;20131;-76
2024/02/24 11:42:00;;;;;;;;;;;;;;;5.43;100.00;99822.38;5036096;28;19947;-77
2024/02/24 11:44:27;;;;;;;;;;;;;;;5.51;100.00;99814.31;5017718;28;20454;-77
2024/02/24 11:46:55;;;;;;;;;;;;;;;5.60;100.00;99818.31;5036349;28;19927;-77
2024/02/24 11:49:21;;;;;;;;;;;;;;;5.66;100.00;99821.56;5035998;28;19917;-76
2024/02/24 11:51:47;;;;;;;;;;;;;;;5.74;100.00;99821.28;5032449;28;19931;-76
2024/02/24 11:54:12;;;;;;;;;;;;;;;5.82;100.00;99839.16;5032829;28;19925;-76
2024/02/24 11:56:37;;;;;;;;;;;;;;;5.73;100.00;99836.03;5040701;28;19967;-76
2024/02/24 11:59:03;;;;;;;;;;;;;;;5.64;100.00;99830.28;5049406;28;19916;-76
2024/02/24 12:01:29;;;;;;;;;;;;;;;5.61;100.00;99852.03;5037320;28;19920;-77
2024/02/24 12:03:57;;;;;;;;;;;;;;;5.53;100.00;99838.47;5030971;28;20235;-77
2024/02/24 12:06:24;;;;;;;;;;;;;;;5.53;100.00;99848.84;5032059;28;19928;-77
2024/02/24 12:08:50;;;;;;;;;;;;;;;5.52;100.00;99847.19;5031926;28;19917;-76
2024/02/24 12:11:15;;;;;;;;;;;;;;;5.56;100.00;99854.78;5036502;28;20004;-77
2024/02/24 12:13:41;;;;;;;;;;;;;;;5.61;100.00;99853.81;5048767;28;19999;-76
2024/02/24 12:16:06;;;;;;;;;;;;;;;5.43;100.00;99860.50;5050399;28;19921;-77
2024/02/24 12:18:33;;;;;;;;;;;;;;;5.43;100.00;99863.09;5050022;28;19916;-77
2024/02/24 12:20:58;;;;;;;;;;;;;;;5.37;100.00;99870.19;5048594;28;20015;-77
2024/02/24 12:23:23;;;;;;;;;;;;;;;5.34;100.00;99865.09;5038936;28;20340;-76
2024/02/24 12:25:51;;;;;;;;;;;;;;;5.26;100.00;99863.69;5032372;28;19990;-77
2024/02/24 12:28:17;;;;;;;;;;;;;;;5.24;100.00;99862.88;5037391;28;19975;-77
2024/02/24 12:30:46;;;;;;;;;;;;;;;5.21;100.00;99863.00;5034134;28;19993;-77
2024/02/24 12:33:13;;;;;;;;;;;;;;;5.21;100.00;99863.81;5037108;28;20014;-76
2024/02/24 12:35:39;;;;;;;;;;;;;;;5.16;100.00;99863.97;5035337;28;19956;-77
2024/02/24 12:38:05;;;;;;;;;;;;;;;5.05;100.00;99866.09;5033493;28;20238;-77
2024/02/24 12:40:31;;;;;;;;;;;;;;;5.07;100.00;99868.63;5041908;28;20270;-77